createdAt,value
2019-02-05T00:00:02.531Z,8.53
2019-02-05T00:05:06.591Z,8.97
2019-02-05T00:10:10.740Z,9.10
2019-02-05T00:15:15.117Z,8.50
2019-02-05T00:20:19.021Z,8.90
2019-02-05T00:25:22.771Z,8.50
2019-02-05T00:30:26.653Z,8.10
2019-02-05T00:35:30.813Z,8.10
2019-02-05T00:40:34.586Z,7.60
2019-02-05T00:45:38.672Z,7.73
2019-02-05T00:50:42.517Z,8.87
2019-02-05T00:55:46.298Z,8.70
2019-02-05T01:00:50.030Z,8.27
2019-02-05T01:05:53.901Z,8.67
2019-02-05T01:10:57.797Z,9.20
2019-02-05T01:16:01.508Z,9.47
2019-02-05T01:21:05.381Z,9.47
2019-02-05T01:26:09.181Z,8.83
2019-02-05T01:31:13.003Z,9.73
2019-02-05T01:36:17.065Z,10.43
2019-02-05T01:41:21.519Z,9.87
2019-02-05T01:46:25.393Z,10.50
2019-02-05T01:51:29.455Z,9.00
2019-02-05T01:56:40.476Z,8.87
2019-02-05T02:01:39.279Z,9.33
2019-02-05T02:06:43.059Z,9.33
2019-02-05T02:11:47.351Z,9.87
2019-02-05T02:16:51.326Z,9.27
2019-02-05T02:21:55.626Z,9.43
2019-02-05T02:26:59.316Z,8.73
2019-02-05T02:32:02.985Z,9.10
2019-02-05T02:37:06.656Z,9.03
2019-02-05T02:42:10.415Z,9.40
2019-02-05T02:47:14.072Z,9.20
2019-02-05T02:52:17.810Z,9.40
2019-02-05T02:57:21.523Z,10.00
2019-02-05T03:02:25.630Z,9.63
2019-02-05T03:07:29.674Z,9.27
2019-02-05T03:12:33.639Z,9.23
2019-02-05T03:17:37.374Z,10.03
2019-02-05T03:22:41.153Z,10.70
2019-02-05T03:27:45.559Z,10.47
2019-02-05T03:32:50.537Z,10.13
2019-02-05T03:37:54.604Z,10.43
2019-02-05T03:42:58.978Z,10.10
2019-02-05T03:48:03.716Z,10.93
2019-02-05T03:53:07.415Z,10.53
2019-02-05T03:58:47.279Z,10.67
2019-02-05T04:04:18.356Z,9.80
2019-02-05T04:09:50.705Z,9.17
2019-02-05T04:15:10.894Z,10.13
2019-02-05T04:20:28.905Z,9.40
2019-02-05T04:26:01.025Z,10.73
2019-02-05T04:31:43.429Z,24.17
2019-02-05T04:37:28.174Z,22.63
2019-02-05T04:42:45.097Z,16.90
2019-02-05T04:48:38.271Z,12.83
2019-02-05T04:53:57.972Z,11.67
2019-02-05T04:59:39.657Z,9.73
2019-02-05T05:05:11.359Z,10.47
2019-02-05T05:10:15.451Z,9.43
2019-02-05T05:15:19.229Z,10.57
2019-02-05T05:20:23.215Z,8.63
2019-02-05T05:25:27.752Z,8.57
2019-02-05T05:30:31.938Z,8.73
2019-02-05T05:35:41.820Z,8.63
2019-02-05T05:40:41.194Z,9.20
2019-02-05T05:45:45.707Z,9.20
2019-02-05T05:50:49.680Z,8.90
2019-02-05T05:55:53.435Z,8.73
2019-02-05T06:00:57.168Z,14.00
2019-02-05T06:06:00.895Z,11.80
2019-02-05T06:11:05.152Z,17.57
2019-02-05T06:16:09.141Z,11.13
2019-02-05T06:21:13.766Z,12.37
2019-02-05T06:26:20.170Z,9.13
2019-02-05T06:31:23.261Z,9.00
2019-02-05T06:36:27.076Z,8.97
2019-02-05T06:41:30.749Z,8.93
2019-02-05T06:46:35.778Z,9.00
2019-02-05T06:51:39.452Z,9.67
2019-02-05T06:56:43.153Z,8.97
2019-02-05T07:01:46.843Z,10.00
2019-02-05T07:06:50.755Z,10.47
2019-02-05T07:11:54.525Z,10.13
2019-02-05T07:16:58.226Z,9.77
2019-02-05T07:22:02.647Z,10.73
2019-02-05T07:27:06.336Z,8.87
2019-02-05T07:32:29.561Z,8.57
2019-02-05T07:37:33.322Z,9.50
2019-02-05T07:42:37.349Z,9.27
2019-02-05T07:47:41.104Z,8.67
2019-02-05T07:52:44.909Z,8.90
2019-02-05T07:57:48.822Z,8.40
2019-02-05T08:02:52.642Z,7.70
2019-02-05T08:07:56.754Z,8.20
2019-02-05T08:13:00.763Z,8.83
2019-02-05T08:18:05.427Z,10.17
2019-02-05T08:23:09.245Z,9.07
2019-02-05T08:28:13.006Z,8.90
2019-02-05T08:33:16.792Z,8.67
2019-02-05T08:38:20.885Z,8.93
2019-02-05T08:43:24.620Z,9.43
2019-02-05T08:48:28.451Z,9.10
2019-02-05T08:53:32.191Z,9.00
2019-02-05T08:58:35.973Z,8.73
2019-02-05T09:03:39.868Z,8.87
2019-02-05T09:08:43.944Z,8.73
2019-02-05T09:13:47.701Z,8.77
2019-02-05T09:18:51.461Z,8.90
2019-02-05T09:23:55.330Z,8.43
2019-02-05T09:28:59.283Z,8.53
2019-02-05T09:34:03.070Z,8.93
2019-02-05T09:39:08.303Z,8.73
2019-02-05T09:44:12.019Z,7.90
2019-02-05T09:49:15.773Z,8.10
2019-02-05T09:54:19.698Z,8.17
2019-02-05T09:59:24.303Z,7.67
2019-02-05T10:04:28.170Z,8.57
2019-02-05T10:09:31.923Z,8.47
2019-02-05T10:14:35.727Z,7.97
2019-02-05T10:19:39.889Z,8.57
2019-02-05T10:24:43.817Z,7.93
2019-02-05T10:29:57.727Z,8.20
2019-02-05T10:34:53.234Z,8.83
2019-02-05T10:39:57.002Z,10.33
2019-02-05T10:45:01.052Z,8.57
2019-02-05T10:50:06.707Z,9.00
2019-02-05T10:55:11.614Z,8.30
2019-02-05T11:00:18.212Z,8.80
2019-02-05T11:05:23.994Z,9.17
2019-02-05T11:10:28.209Z,9.17
2019-02-05T11:15:32.570Z,10.10
2019-02-05T11:20:36.480Z,10.40
2019-02-05T11:25:40.597Z,10.37
2019-02-05T11:30:45.407Z,11.53
2019-02-05T11:35:49.866Z,11.33
2019-02-05T11:40:53.812Z,12.00
2019-02-05T11:45:57.849Z,10.23
2019-02-05T11:51:01.844Z,11.10
2019-02-05T11:56:05.607Z,11.20
2019-02-05T12:01:22.586Z,11.63
2019-02-05T12:06:26.835Z,11.77
2019-02-05T12:11:31.068Z,11.50
2019-02-05T12:16:34.787Z,11.47
2019-02-05T12:21:38.882Z,11.37
2019-02-05T12:26:42.738Z,11.53
2019-02-05T12:31:46.744Z,10.63
2019-02-05T12:36:50.708Z,10.57
2019-02-05T12:41:54.437Z,11.03
2019-02-05T12:46:58.190Z,9.80
2019-02-05T12:52:01.899Z,12.30
2019-02-05T12:57:06.072Z,11.20
2019-02-05T13:02:09.914Z,12.40
2019-02-05T13:07:13.844Z,11.30
2019-02-05T13:12:17.553Z,11.67
2019-02-05T13:17:21.619Z,12.17
2019-02-05T13:22:25.459Z,11.90
2019-02-05T13:27:29.493Z,12.13
2019-02-05T13:32:52.745Z,12.37
2019-02-05T13:37:56.513Z,13.13
2019-02-05T13:43:00.486Z,12.43
2019-02-05T13:48:05.680Z,12.03
2019-02-05T13:53:10.029Z,11.53
2019-02-05T13:58:14.853Z,12.03
2019-02-05T14:03:18.694Z,12.73
2019-02-05T14:08:24.022Z,12.47
2019-02-05T14:13:27.680Z,11.70
2019-02-05T14:18:31.457Z,12.07
2019-02-05T14:23:35.417Z,11.87
2019-02-05T14:28:39.179Z,12.53
2019-02-05T14:33:42.995Z,13.63
2019-02-05T14:38:46.769Z,13.07
2019-02-05T14:43:50.458Z,14.03
2019-02-05T14:48:54.136Z,13.37
2019-02-05T14:53:57.822Z,12.90
2019-02-05T14:59:01.919Z,13.17
2019-02-05T15:04:06.089Z,14.40
2019-02-05T15:09:10.496Z,12.97
2019-02-05T15:14:14.196Z,12.43
2019-02-05T15:19:18.534Z,12.87
2019-02-05T15:24:22.843Z,13.73
2019-02-05T15:29:26.772Z,14.57
2019-02-05T15:34:30.590Z,14.13
2019-02-05T15:39:34.346Z,14.70
2019-02-05T15:44:38.146Z,14.10
2019-02-05T15:49:41.833Z,13.47
2019-02-05T15:54:45.495Z,13.83
2019-02-05T15:59:49.605Z,13.83
2019-02-05T16:04:53.276Z,14.50
2019-02-05T16:09:56.965Z,20.77
2019-02-05T16:15:00.780Z,17.80
2019-02-05T16:20:05.578Z,16.07
2019-02-05T16:25:11.274Z,16.50
2019-02-05T16:30:17.597Z,15.63
2019-02-05T16:35:21.605Z,16.57
2019-02-05T16:40:26.414Z,16.53
2019-02-05T16:45:30.611Z,16.17
2019-02-05T16:50:37.038Z,15.53
2019-02-05T16:55:40.899Z,14.60
2019-02-05T17:00:44.714Z,15.13
2019-02-05T17:05:48.443Z,17.27
2019-02-05T17:10:52.169Z,16.37
2019-02-05T17:15:55.847Z,17.93
2019-02-05T17:20:59.589Z,17.27
2019-02-05T17:26:03.324Z,18.73
2019-02-05T17:31:07.233Z,18.67
2019-02-05T17:36:11.889Z,20.27
2019-02-05T17:41:15.946Z,21.70
2019-02-05T17:46:19.710Z,20.30
2019-02-05T17:51:23.490Z,21.20
2019-02-05T17:56:27.339Z,21.50
2019-02-05T18:01:31.073Z,21.50
2019-02-05T18:06:35.128Z,22.43
2019-02-05T18:11:39.160Z,22.23
2019-02-05T18:16:45.313Z,21.70
2019-02-05T18:21:48.341Z,23.10
2019-02-05T18:26:52.375Z,22.23
2019-02-05T18:31:56.348Z,21.57
2019-02-05T18:37:00.296Z,22.50
2019-02-05T18:42:04.105Z,22.57
2019-02-05T18:47:07.976Z,22.13
2019-02-05T18:52:11.729Z,23.83
2019-02-05T18:57:15.700Z,24.27
2019-02-05T19:02:20.397Z,29.90
2019-02-05T19:07:24.529Z,28.20
2019-02-05T19:12:28.330Z,28.20
2019-02-05T19:17:32.098Z,28.80
2019-02-05T19:22:35.791Z,27.13
2019-02-05T19:27:39.507Z,25.73
2019-02-05T19:32:43.349Z,24.03
2019-02-05T19:37:47.055Z,24.47
2019-02-05T19:42:51.123Z,25.03
2019-02-05T19:47:55.467Z,25.53
2019-02-05T19:52:59.329Z,26.47
2019-02-05T19:58:03.103Z,23.77
2019-02-05T20:03:07.834Z,24.70
2019-02-05T20:08:11.503Z,24.20
2019-02-05T20:13:15.591Z,23.80
2019-02-05T20:18:19.301Z,24.13
2019-02-05T20:23:23.367Z,23.50
2019-02-05T20:28:27.129Z,25.57
2019-02-05T20:33:31.494Z,23.97
2019-02-05T20:38:35.558Z,23.97
2019-02-05T20:43:39.853Z,24.93
2019-02-05T20:48:43.825Z,24.60
2019-02-05T20:53:47.871Z,24.50
2019-02-05T20:58:51.900Z,24.77
2019-02-05T21:04:01.230Z,24.33
2019-02-05T21:09:01.568Z,23.07
2019-02-05T21:14:05.505Z,26.07
2019-02-05T21:19:09.641Z,25.43
2019-02-05T21:24:13.369Z,26.17
2019-02-05T21:29:17.689Z,24.60
2019-02-05T21:34:21.434Z,23.97
2019-02-05T21:39:25.584Z,26.63
2019-02-05T21:44:29.322Z,25.07
2019-02-05T21:49:33.115Z,24.13
2019-02-05T21:54:37.225Z,25.10
2019-02-05T21:59:40.943Z,25.77
2019-02-05T22:04:45.018Z,25.10
2019-02-05T22:09:49.242Z,25.40
2019-02-05T22:14:53.163Z,25.30
2019-02-05T22:19:57.306Z,24.93
2019-02-05T22:25:01.097Z,26.57
2019-02-05T22:30:11.198Z,25.50
2019-02-05T22:35:15.749Z,24.00
2019-02-05T22:40:21.381Z,24.63
2019-02-05T22:45:29.507Z,25.53
2019-02-05T22:50:33.383Z,24.67
2019-02-05T22:55:37.163Z,25.93
2019-02-05T23:01:01.738Z,24.60
2019-02-05T23:07:08.969Z,24.73
2019-02-05T23:12:43.021Z,24.40
2019-02-05T23:17:46.861Z,26.90
2019-02-05T23:22:50.796Z,26.80
2019-02-05T23:27:54.682Z,28.00
2019-02-05T23:32:59.064Z,25.43
2019-02-05T23:38:03.508Z,25.87
2019-02-05T23:43:07.672Z,26.73
2019-02-05T23:48:11.483Z,26.27
2019-02-05T23:53:15.543Z,27.47
2019-02-05T23:58:19.280Z,28.40
